• Join FlightAware (Why Join?)
  • Login
  • US Flag 
10:08PM EDT


 

Airport Tracker/Info


-or-


 

Live Flight TrackerFlight Track Log ✈ DAL1283 ✈ 22-Apr-2013 ✈ KMSP - KIND

Flight Track Log - Related Links

Times and Time Zones

All times are in EDT time to prevent confusion due to time zone crossing. See the DAL1283 flight status page for this flight to view local times or setup timezone preferences in your user account.

Time Position Orientation Groundspeed Altitude Reporting Facility
EDT Latitude Longitude Course Direction KTS MPH feet Rate Location/Type
06:49PM 44.8892 -93.2494 144° Southeast 181 208 2,000  Level FAA TRACON SMA TRACON (SMA)
06:49PM 44.8856 -93.2822 261° West 213 245 2,700 2,460 Climbing FAA TRACON SMA TRACON (SMA)
06:50PM 44.8808 -93.3125 258° West 247 284 3,700 3,060 Climbing FAA TRACON SMA TRACON (SMA)
06:50PM 44.8744 -93.3431 254° West 267 307 4,800 3,360 Climbing FAA TRACON SMA TRACON (SMA)
06:50PM 44.8525 -93.3714 222° Southwest 288 331 5,900 3,420 Climbing FAA TRACON SMA TRACON (SMA)
06:51PM 44.8311 -93.3814 198° South 273 314 7,100 3,480 Climbing FAA TRACON SMA TRACON (SMA)
06:51PM 44.8106 -93.3886 194° South 251 289 8,300 3,420 Climbing FAA TRACON SMA TRACON (SMA)
06:51PM 44.7833 -93.3894 181° South 255 293 9,400 3,360 Climbing FAA TRACON SMA TRACON (SMA)
06:52PM 44.6316 -92.8435 141° Southeast  Level Estimated
06:52PM 44.7631 -93.3717 148° Southeast 279 321 10,500  Level FAA TRACON SMA TRACON (SMA)
06:52PM 44.7481 -93.3431 126° Southeast 296 341 11,500 3,000 Climbing FAA TRACON SMA TRACON (SMA)
06:52PM 44.7322 -93.3117 125° Southeast 311 358 12,500 2,700 Climbing FAA TRACON SMA TRACON (SMA)
06:53PM 44.5479 -92.7181 137° Southeast  Level Estimated
06:53PM 44.7128 -93.2708 124° Southeast 325 374 13,300  Level FAA TRACON SMA TRACON (SMA)
06:53PM 44.6969 -93.2353 122° Southeast 342 394 13,800 1,500 Climbing FAA TRACON SMA TRACON (SMA)
06:53PM 44.6761 -93.1875 122° Southeast 369 425 14,300 1,620 Climbing FAA TRACON SMA TRACON (SMA)
06:54PM 44.4640 -92.5931 144° Southeast  Level Estimated
06:54PM 44.6586 -93.1475 122° Southeast 384 442 14,900  Level FAA TRACON SMA TRACON (SMA)
06:54PM 44.6408 -93.1078 122° Southeast 391 450 16,100 3,360 Climbing FAA TRACON SMA TRACON (SMA)
06:54PM 44.6189 -93.0578 122° Southeast 391 450 17,200 2,880 Climbing FAA TRACON SMA TRACON (SMA)
06:55PM 44.6011 -93.0172 122° Southeast 394 453 18,000 2,280 Climbing FAA TRACON SMA TRACON (SMA)
06:55PM 44.5831 -92.9767 122° Southeast 398 458 18,700 2,340 Climbing FAA TRACON SMA TRACON (SMA)
06:55PM 44.5597 -92.9253 122° Southeast 404 465 19,600 2,400 Climbing FAA TRACON SMA TRACON (SMA)
06:56PM 44.5411 -92.8836 122° Southeast 409 471 20,300 1,920 Climbing FAA TRACON SMA TRACON (SMA)
06:56PM 44.5222 -92.8406 122° Southeast 415 478 20,900 2,040 Climbing FAA TRACON SMA TRACON (SMA)
06:56PM 44.4978 -92.7875 123° Southeast 422 486 21,700 1,620 Climbing FAA TRACON SMA TRACON (SMA)
06:57PM 44.4783 -92.7431 122° Southeast 428 493 22,000 1,500 Climbing FAA TRACON SMA TRACON (SMA)
06:57PM 44.4586 -92.6978 121° Southeast 438 504 22,700 1,800 Climbing FAA TRACON SMA TRACON (SMA)
06:57PM 44.4333 -92.6414 122° Southeast 444 511 23,200 1,680 Climbing FAA TRACON SMA TRACON (SMA)
06:58PM 44.4119 -92.5964 124° Southeast 450 518 23,800 1,680 Climbing FAA TRACON SMA TRACON (SMA)
06:58PM 44.3917 -92.5492 121° Southeast 456 525 24,300 1,800 Climbing FAA TRACON SMA TRACON (SMA)
06:58PM 44.3653 -92.4911 122° Southeast 460 529 25,000 1,800 Climbing FAA TRACON SMA TRACON (SMA)
06:59PM 44.3442 -92.4447 122° Southeast 461 531 25,500 1,500 Climbing FAA TRACON SMA TRACON (SMA)
06:59PM 44.3233 -92.3969 121° Southeast 465 535 26,000 2,100 Climbing FAA TRACON SMA TRACON (SMA)
06:59PM 44.2964 -92.3389 123° Southeast 465 535 26,900 2,220 Climbing FAA TRACON SMA TRACON (SMA)
07:00PM 44.2728 -92.2950 127° Southeast 462 532 27,500 1,860 Climbing FAA TRACON SMA TRACON (SMA)
07:00PM 44.2494 -92.2508 126° Southeast 457 526 28,200 2,040 Climbing FAA TRACON SMA TRACON (SMA)
07:00PM 44.2167 -92.2011 133° Southeast 455 524 28,900 1,560 Climbing FAA TRACON SMA TRACON (SMA)
07:02PM 44.0789 -92.0036 134° Southeast 455 524 31,400 1,440 Climbing Minneapolis Center
07:03PM 43.9956 -91.8722 131° Southeast 455 524 32,800 780 Climbing Minneapolis Center
07:04PM 43.9094 -91.7414 132° Southeast 458 527 33,000 60 Climbing Minneapolis Center
07:05PM 43.8247 -91.6125 132° Southeast 460 529 33,000  Level Minneapolis Center
07:06PM 43.7219 -91.4547 132° Southeast 462 532 33,000  Level Minneapolis Center
07:07PM 43.6533 -91.3494 132° Southeast 463 533 33,000  Level Minneapolis Center
07:08PM 43.5497 -91.1914 132° Southeast 464 534 33,000  Level Minneapolis Center
07:09PM 43.4631 -91.0606 132° Southeast 464 534 33,000  Level Minneapolis Center
07:10PM 43.3756 -90.9292 132° Southeast 466 536 33,000  Level Minneapolis Center
07:11PM 43.2861 -90.7972 133° Southeast 470 541 33,000  Level Minneapolis Center
07:12PM 43.1978 -90.6667 133° Southeast 469 540 33,000  Level Minneapolis Center
07:13PM 43.0928 -90.5108 133° Southeast 468 539 33,000  Level Minneapolis Center
07:15PM 43.0036 -90.3800 133° Southeast 470 541 33,000  Level Minneapolis Center
07:16PM 42.9186 -90.2561 133° Southeast 472 543 33,000  Level Minneapolis Center
07:17PM 42.8181 -90.1081 133° Southeast 466 536 33,000  Level Minneapolis Center
07:18PM 42.7186 -89.9656 134° Southeast 475 547 33,000  Level Chicago Center
07:19PM 42.6197 -89.8233 133° Southeast 476 548 33,000  Level Chicago Center
07:20PM 42.5308 -89.6944 133° Southeast 470 541 33,000  Level Chicago Center
07:21PM 42.4408 -89.5656 133° Southeast 472 543 33,000  Level Chicago Center
07:22PM 42.3353 -89.4161 134° Southeast 472 543 33,000  Level Chicago Center
07:23PM 42.2447 -89.2878 134° Southeast 473 544 33,000  Level Chicago Center
07:24PM 42.1544 -89.1603 134° Southeast 472 543 33,000  Level Chicago Center
07:25PM 42.0642 -89.0339 134° Southeast 469 540 33,000 -480 Level Chicago Center
07:26PM 41.9736 -88.9072 134° Southeast 472 543 32,100 -1,020 Descending Chicago Center
07:27PM 41.8750 -88.7692 134° Southeast 467 537 30,900 -1,140 Descending Chicago Center
07:28PM 41.7950 -88.6603 135° Southeast 464 534 29,800 -960 Descending Chicago Center
07:29PM 41.6883 -88.5131 134° Southeast 463 533 29,000 -420 Descending Chicago Center
07:30PM 41.5989 -88.3947 135° Southeast 458 527 29,000  Level Chicago Center
07:31PM 41.5022 -88.2886 141° Southeast 457 526 29,000  Level Chicago Center
07:32PM 41.4067 -88.1853 141° Southeast 455 524 29,000  Level Chicago Center
07:33PM 41.2931 -88.0622 141° Southeast 457 526 29,000  Level Chicago Center
07:34PM 41.1956 -87.9572 141° Southeast 460 529 29,000  Level Chicago Center
07:35PM 41.0875 -87.8747 150° Southeast 454 522 29,000 -240 Level Chicago Center
07:36PM 40.9733 -87.8075 156° South 452 520 28,600 -840 Descending Chicago Center
07:37PM 40.8589 -87.7419 157° South 450 518 27,300 -1,560 Descending Chicago Center
07:38PM 40.7281 -87.6489 152° Southeast 462 532 25,500 -1,560 Descending Chicago Center
07:39PM 40.6383 -87.5322 135° Southeast 456 525 24,200 -1,260 Descending Chicago Center
07:40PM 40.5522 -87.4119 133° Southeast 456 525 23,000 -1,140 Descending Chicago Center
07:41PM 40.4697 -87.2931 132° Southeast 446 513 21,900 -1,860 Descending Chicago Center
07:42PM 40.3886 -87.1781 133° Southeast 436 502 19,200 -2,760 Descending Chicago Center
07:44PM 40.3086 -87.0681 134° Southeast 425 489 16,300 -2,940 Descending Chicago Center
07:45PM 40.2172 -86.9419 133° Southeast 404 465 13,200 -1,620 Descending Chicago Center
07:46PM 40.1442 -86.8361 132° Southeast 397 457 13,000 -180 Descending Chicago Center
07:47PM 40.0625 -86.7267 134° Southeast 390 449 12,900 -540 Descending Indianapolis Center
07:48PM 39.9958 -86.6414 136° Southeast 368 423 11,900 -960 Descending Indianapolis Center
07:49PM 39.9336 -86.5583 134° Southeast 348 400 11,000 -1,200 Descending Indianapolis Center
07:50PM 39.8783 -86.4833 134° Southeast 323 372 9,500 -1,560 Descending Indianapolis Center
07:51PM 39.8253 -86.4111 134° Southeast 301 346 7,900 -1,560 Descending Indianapolis Center
07:51PM 39.7833 -86.3667 141° Southeast 268 308 7,000 -1,380 Descending Indianapolis TRACON
07:52PM 39.7333 -86.4000 207° Southwest 242 278 5,700 -1,320 Descending Indianapolis TRACON
07:53PM 39.7144 -86.4175 215° Southwest 256 295 5,100 -1,320 Descending Indianapolis Center
07:54PM 39.6333 -86.5167 223° Southwest 222 255 3,100 -840 Descending Indianapolis TRACON
07:55PM 39.6000 -86.4833 142° Southeast 209 241 3,100  Level Indianapolis TRACON